Check out our new PWSWeather beta!
PWSweather.com
Personal Weather Stations
Station Observations
METEOC500
Santo Antonio, FunchalPT 2020

Santo AntonioFunchalPT 2020

Lat: 32.678227, Lon: -16.945054

Elevation: 1669.94751

Station Type: WH Series

High Low Average
Temperature 62.2°F16.8°C 50.0°F10.0°C 54.8°F12.7°C
Dew Point 49.6°F9.8°C 41.4°F5.2°C 45.4°F7.4°C
Winds 12.3 mph 19.8 kmh Calm Calm 5.0 mph W8.0 kmh W
Wind Gusts 20.1 mph32.3 kmh 4.9 mph7.9 kmh 10.0 mph16.1 kmh
Humidity 80% 58% 71%
Pressure 30.02 in1016.6 mb 29.91 in1012.9 mb -
Precipitation 0.00 in0.0 mm - -
Hour Temp Dew Point Humidity Winds Wind Gusts Pressure Precip Precip Rate Daily Precip Total
12:05 AM 51.3°F10.7°C 44.6°F7.0°C 78% 4.7 mph N7.6 kmh N 10.1 mph16.3 kmh 30.02 in1016.6 mb 0.00 in0.0 mm 0.00 in0.0 mm 0.00 in0.0 mm
12:20 AM 51.1°F10.6°C 44.8°F7.1°C 79% 6.0 mph NNW9.7 kmh NNW 10.1 mph16.3 kmh 30.01 in1016.3 mb 0.00 in0.0 mm 0.00 in0.0 mm 0.00 in0.0 mm
12:35 AM 51.1°F10.6°C 43.7°F6.5°C 76% 7.2 mph NNW11.6 kmh NNW 10.1 mph16.3 kmh 30.01 in1016.3 mb 0.00 in0.0 mm 0.00 in0.0 mm 0.00 in0.0 mm
12:50 AM 51.4°F10.8°C 44.4°F6.9°C 77% 5.4 mph N8.7 kmh N 10.1 mph16.3 kmh 30.01 in1016.3 mb 0.00 in0.0 mm 0.00 in0.0 mm 0.00 in0.0 mm
01:05 AM 51.3°F10.7°C 43.9°F6.6°C 76% 4.0 mph N6.4 kmh N 10.1 mph16.3 kmh 30.00 in1015.9 mb 0.00 in0.0 mm 0.00 in0.0 mm 0.00 in0.0 mm
01:20 AM 51.1°F10.6°C 43.2°F6.2°C 74% 5.4 mph NNW8.7 kmh NNW 12.5 mph20.1 kmh 30.00 in1015.9 mb 0.00 in0.0 mm 0.00 in0.0 mm 0.00 in0.0 mm
01:35 AM 51.3°F10.7°C 45.0°F7.2°C 79% 4.9 mph N7.9 kmh N 10.1 mph16.3 kmh 30.00 in1015.9 mb 0.00 in0.0 mm 0.00 in0.0 mm 0.00 in0.0 mm
01:50 AM 51.4°F10.8°C 43.2°F6.2°C 73% 6.0 mph N9.7 kmh N 10.1 mph16.3 kmh 29.99 in1015.6 mb 0.00 in0.0 mm 0.00 in0.0 mm 0.00 in0.0 mm
02:05 AM 51.8°F11.0°C 43.7°F6.5°C 74% 4.0 mph N6.4 kmh N 7.6 mph12.2 kmh 29.98 in1015.2 mb 0.00 in0.0 mm 0.00 in0.0 mm 0.00 in0.0 mm
02:20 AM 52.2°F11.2°C 44.4°F6.9°C 75% 3.8 mph N6.1 kmh N 7.6 mph12.2 kmh 29.98 in1015.2 mb 0.00 in0.0 mm 0.00 in0.0 mm 0.00 in0.0 mm
02:35 AM 52.2°F11.2°C 44.8°F7.1°C 76% 4.0 mph N6.4 kmh N 10.1 mph16.3 kmh 29.98 in1015.2 mb 0.00 in0.0 mm 0.00 in0.0 mm 0.00 in0.0 mm
02:50 AM 52.2°F11.2°C 44.8°F7.1°C 76% 6.0 mph NNW9.7 kmh NNW 7.6 mph12.2 kmh 29.97 in1014.9 mb 0.00 in0.0 mm 0.00 in0.0 mm 0.00 in0.0 mm
03:06 AM 52.3°F11.3°C 45.7°F7.6°C 78% 3.1 mph N5.0 kmh N 10.1 mph16.3 kmh 29.97 in1014.9 mb 0.00 in0.0 mm 0.00 in0.0 mm 0.00 in0.0 mm
03:21 AM 52.3°F11.3°C 46.0°F7.8°C 79% 3.4 mph NNW5.5 kmh NNW 7.6 mph12.2 kmh 29.96 in1014.6 mb 0.00 in0.0 mm 0.00 in0.0 mm 0.00 in0.0 mm
03:36 AM 52.0°F11.1°C 45.0°F7.2°C 77% 1.6 mph NW2.6 kmh NW 7.6 mph12.2 kmh 29.96 in1014.6 mb 0.00 in0.0 mm 0.00 in0.0 mm 0.00 in0.0 mm
03:51 AM 52.0°F11.1°C 45.7°F7.6°C 79% 2.9 mph NNW4.7 kmh NNW 7.6 mph12.2 kmh 29.96 in1014.6 mb 0.00 in0.0 mm 0.00 in0.0 mm 0.00 in0.0 mm
04:06 AM 52.2°F11.2°C 45.1°F7.3°C 77% 2.9 mph NW4.7 kmh NW 4.9 mph7.9 kmh 29.97 in1014.9 mb 0.00 in0.0 mm 0.00 in0.0 mm 0.00 in0.0 mm
04:21 AM 52.0°F11.1°C 46.0°F7.8°C 80% 3.4 mph NNW5.5 kmh NNW 7.6 mph12.2 kmh 29.96 in1014.6 mb 0.00 in0.0 mm 0.00 in0.0 mm 0.00 in0.0 mm
04:36 AM 51.8°F11.0°C 45.5°F7.5°C 79% 4.0 mph N6.4 kmh N 10.1 mph16.3 kmh 29.95 in1014.2 mb 0.00 in0.0 mm 0.00 in0.0 mm 0.00 in0.0 mm
04:51 AM 51.8°F11.0°C 45.1°F7.3°C 78% 6.3 mph NNW10.1 kmh NNW 10.1 mph16.3 kmh 29.95 in1014.2 mb 0.00 in0.0 mm 0.00 in0.0 mm 0.00 in0.0 mm
05:06 AM 51.6°F10.9°C 45.0°F7.2°C 78% 4.5 mph N7.2 kmh N 10.1 mph16.3 kmh 29.96 in1014.6 mb 0.00 in0.0 mm 0.00 in0.0 mm 0.00 in0.0 mm
05:21 AM 51.6°F10.9°C 44.2°F6.8°C 76% 7.2 mph NNW11.6 kmh NNW 10.1 mph16.3 kmh 29.95 in1014.2 mb 0.00 in0.0 mm 0.00 in0.0 mm 0.00 in0.0 mm
05:36 AM 51.3°F10.7°C 43.5°F6.4°C 75% 7.8 mph NNW12.6 kmh NNW 12.5 mph20.1 kmh 29.96 in1014.6 mb 0.00 in0.0 mm 0.00 in0.0 mm 0.00 in0.0 mm
05:51 AM 50.9°F10.5°C 43.5°F6.4°C 76% 4.0 mph NNW6.4 kmh NNW 10.1 mph16.3 kmh 29.95 in1014.2 mb 0.00 in0.0 mm 0.00 in0.0 mm 0.00 in0.0 mm
06:06 AM 50.4°F10.2°C 43.2°F6.2°C 76% 7.2 mph N11.6 kmh N 10.1 mph16.3 kmh 29.95 in1014.2 mb 0.00 in0.0 mm 0.00 in0.0 mm 0.00 in0.0 mm
06:21 AM 50.0°F10.0°C 42.8°F6.0°C 76% 6.3 mph NNW10.1 kmh NNW 10.1 mph16.3 kmh 29.96 in1014.6 mb 0.00 in0.0 mm 0.00 in0.0 mm 0.00 in0.0 mm
06:36 AM 50.0°F10.0°C 42.8°F6.0°C 76% 9.4 mph NNW15.1 kmh NNW 12.5 mph20.1 kmh 29.96 in1014.6 mb 0.00 in0.0 mm 0.00 in0.0 mm 0.00 in0.0 mm
06:51 AM 50.2°F10.1°C 43.3°F6.3°C 77% 8.7 mph NNW14.0 kmh NNW 12.5 mph20.1 kmh 29.96 in1014.6 mb 0.00 in0.0 mm 0.00 in0.0 mm 0.00 in0.0 mm
07:06 AM 50.4°F10.2°C 42.1°F5.6°C 73% 9.4 mph N15.1 kmh N 12.5 mph20.1 kmh 29.96 in1014.6 mb 0.00 in0.0 mm 0.00 in0.0 mm 0.00 in0.0 mm
07:21 AM 50.4°F10.2°C 42.1°F5.6°C 73% 7.2 mph NW11.6 kmh NW 12.5 mph20.1 kmh 29.96 in1014.6 mb 0.00 in0.0 mm 0.00 in0.0 mm 0.00 in0.0 mm
07:36 AM 50.4°F10.2°C 41.4°F5.2°C 71% 4.9 mph NNW7.9 kmh NNW 10.1 mph16.3 kmh 29.97 in1014.9 mb 0.00 in0.0 mm 0.00 in0.0 mm 0.00 in0.0 mm
07:52 AM 50.5°F10.3°C 41.9°F5.5°C 72% 5.6 mph N9.0 kmh N 10.1 mph16.3 kmh 29.98 in1015.2 mb 0.00 in0.0 mm 0.00 in0.0 mm 0.00 in0.0 mm
08:07 AM 50.9°F10.5°C 41.5°F5.3°C 70% 6.3 mph N10.1 kmh N 10.1 mph16.3 kmh 29.97 in1014.9 mb 0.00 in0.0 mm 0.00 in0.0 mm 0.00 in0.0 mm
08:22 AM 51.3°F10.7°C 43.5°F6.4°C 75% 6.3 mph N10.1 kmh N 10.1 mph16.3 kmh 29.98 in1015.2 mb 0.00 in0.0 mm 0.00 in0.0 mm 0.00 in0.0 mm
08:37 AM 51.4°F10.8°C 43.5°F6.4°C 74% 4.7 mph N7.6 kmh N 10.1 mph16.3 kmh 29.98 in1015.2 mb 0.00 in0.0 mm 0.00 in0.0 mm 0.00 in0.0 mm
08:52 AM 52.2°F11.2°C 43.7°F6.5°C 73% 4.7 mph N7.6 kmh N 7.6 mph12.2 kmh 29.98 in1015.2 mb 0.00 in0.0 mm 0.00 in0.0 mm 0.00 in0.0 mm
09:07 AM 53.8°F12.1°C 43.2°F6.2°C 67% 4.9 mph SSE7.9 kmh SSE 7.6 mph12.2 kmh 29.99 in1015.6 mb 0.00 in0.0 mm 0.00 in0.0 mm 0.00 in0.0 mm
09:22 AM 56.3°F13.5°C 44.2°F6.8°C 64% 3.1 mph S5.0 kmh S 10.1 mph16.3 kmh 29.98 in1015.2 mb 0.00 in0.0 mm 0.00 in0.0 mm 0.00 in0.0 mm
09:37 AM 57.9°F14.4°C 46.6°F8.1°C 66% 4.5 mph S7.2 kmh S 10.1 mph16.3 kmh 29.99 in1015.6 mb 0.00 in0.0 mm 0.00 in0.0 mm 0.00 in0.0 mm
09:52 AM 57.4°F14.1°C 46.0°F7.8°C 66% 0.9 mph SSW1.4 kmh SSW 10.1 mph16.3 kmh 29.99 in1015.6 mb 0.00 in0.0 mm 0.00 in0.0 mm 0.00 in0.0 mm
10:07 AM 57.4°F14.1°C 46.0°F7.8°C 66% Calm Calm 4.9 mph7.9 kmh 29.99 in1015.6 mb 0.00 in0.0 mm 0.00 in0.0 mm 0.00 in0.0 mm
10:22 AM 58.6°F14.8°C 49.6°F9.8°C 72% 3.1 mph S5.0 kmh S 10.1 mph16.3 kmh 29.99 in1015.6 mb 0.00 in0.0 mm 0.00 in0.0 mm 0.00 in0.0 mm
10:37 AM 58.3°F14.6°C 48.9°F9.4°C 71% 6.0 mph SW9.7 kmh SW 10.1 mph16.3 kmh 29.99 in1015.6 mb 0.00 in0.0 mm 0.00 in0.0 mm 0.00 in0.0 mm
10:52 AM 57.4°F14.1°C 46.0°F7.8°C 66% 4.0 mph E6.4 kmh E 15.0 mph24.1 kmh 29.99 in1015.6 mb 0.00 in0.0 mm 0.00 in0.0 mm 0.00 in0.0 mm
11:07 AM 58.3°F14.6°C 45.0°F7.2°C 61% 6.3 mph S10.1 kmh S 10.1 mph16.3 kmh 29.98 in1015.2 mb 0.00 in0.0 mm 0.00 in0.0 mm 0.00 in0.0 mm
11:22 AM 59.7°F15.4°C 45.0°F7.2°C 58% 7.6 mph S12.2 kmh S 10.1 mph16.3 kmh 29.98 in1015.2 mb 0.00 in0.0 mm 0.00 in0.0 mm 0.00 in0.0 mm
11:37 AM 60.1°F15.6°C 47.5°F8.6°C 63% 4.0 mph SSW6.4 kmh SSW 12.5 mph20.1 kmh 29.98 in1015.2 mb 0.00 in0.0 mm 0.00 in0.0 mm 0.00 in0.0 mm
11:52 AM 59.7°F15.4°C 45.9°F7.7°C 60% 4.5 mph S7.2 kmh S 10.1 mph16.3 kmh 29.98 in1015.2 mb 0.00 in0.0 mm 0.00 in0.0 mm 0.00 in0.0 mm
12:07 PM 59.9°F15.5°C 45.5°F7.5°C 59% 2.9 mph S4.7 kmh S 10.1 mph16.3 kmh 29.97 in1014.9 mb 0.00 in0.0 mm 0.00 in0.0 mm 0.00 in0.0 mm
12:23 PM 60.8°F16.0°C 47.7°F8.7°C 62% 4.7 mph SE7.6 kmh SE 12.5 mph20.1 kmh 29.96 in1014.6 mb 0.00 in0.0 mm 0.00 in0.0 mm 0.00 in0.0 mm
12:38 PM 61.2°F16.2°C 47.7°F8.7°C 61% 6.0 mph S9.7 kmh S 20.1 mph32.3 kmh 29.96 in1014.6 mb 0.00 in0.0 mm 0.00 in0.0 mm 0.00 in0.0 mm
12:53 PM 61.5°F16.4°C 47.1°F8.4°C 59% 6.9 mph SE11.1 kmh SE 15.0 mph24.1 kmh 29.96 in1014.6 mb 0.00 in0.0 mm 0.00 in0.0 mm 0.00 in0.0 mm
01:08 PM 61.7°F16.5°C 46.8°F8.2°C 58% 10.1 mph S16.3 kmh S 20.1 mph32.3 kmh 29.96 in1014.6 mb 0.00 in0.0 mm 0.00 in0.0 mm 0.00 in0.0 mm
01:23 PM 61.9°F16.6°C 47.8°F8.8°C 60% 7.6 mph SSW12.2 kmh SSW 17.4 mph28.0 kmh 29.95 in1014.2 mb 0.00 in0.0 mm 0.00 in0.0 mm 0.00 in0.0 mm
01:38 PM 62.1°F16.7°C 47.5°F8.6°C 59% 10.1 mph SE16.3 kmh SE 12.5 mph20.1 kmh 29.94 in1013.9 mb 0.00 in0.0 mm 0.00 in0.0 mm 0.00 in0.0 mm
01:53 PM 62.2°F16.8°C 47.7°F8.7°C 59% 5.6 mph S9.0 kmh S 15.0 mph24.1 kmh 29.93 in1013.5 mb 0.00 in0.0 mm 0.00 in0.0 mm 0.00 in0.0 mm
02:08 PM 61.9°F16.6°C 46.9°F8.3°C 58% 4.7 mph SSW7.6 kmh SSW 15.0 mph24.1 kmh 29.94 in1013.9 mb 0.00 in0.0 mm 0.00 in0.0 mm 0.00 in0.0 mm
02:23 PM 61.9°F16.6°C 46.9°F8.3°C 58% 10.1 mph S16.3 kmh S 17.4 mph28.0 kmh 29.93 in1013.5 mb 0.00 in0.0 mm 0.00 in0.0 mm 0.00 in0.0 mm
02:38 PM 61.5°F16.4°C 47.5°F8.6°C 60% 7.2 mph E11.6 kmh E 20.1 mph32.3 kmh 29.92 in1013.2 mb 0.00 in0.0 mm 0.00 in0.0 mm 0.00 in0.0 mm
02:53 PM 61.0°F16.1°C 47.5°F8.6°C 61% 12.3 mph SSE19.8 kmh SSE 15.0 mph24.1 kmh 29.93 in1013.5 mb 0.00 in0.0 mm 0.00 in0.0 mm 0.00 in0.0 mm
03:08 PM 61.0°F16.1°C 46.9°F8.3°C 60% 6.9 mph S11.1 kmh S 15.0 mph24.1 kmh 29.91 in1012.9 mb 0.00 in0.0 mm 0.00 in0.0 mm 0.00 in0.0 mm
03:23 PM 60.6°F15.9°C 48.7°F9.3°C 65% 5.6 mph SSW9.0 kmh SSW 15.0 mph24.1 kmh 29.91 in1012.9 mb 0.00 in0.0 mm 0.00 in0.0 mm 0.00 in0.0 mm
03:38 PM 60.6°F15.9°C 48.0°F8.9°C 63% 0.2 mph S0.3 kmh S 12.5 mph20.1 kmh 29.92 in1013.2 mb 0.00 in0.0 mm 0.00 in0.0 mm 0.00 in0.0 mm
03:53 PM 60.4°F15.8°C 47.3°F8.5°C 62% 4.9 mph S7.9 kmh S 12.5 mph20.1 kmh 29.91 in1012.9 mb 0.00 in0.0 mm 0.00 in0.0 mm 0.00 in0.0 mm
04:08 PM 60.3°F15.7°C 48.0°F8.9°C 64% 11.0 mph SSE17.7 kmh SSE 15.0 mph24.1 kmh 29.91 in1012.9 mb 0.00 in0.0 mm 0.00 in0.0 mm 0.00 in0.0 mm
04:23 PM 59.7°F15.4°C 48.7°F9.3°C 67% 4.7 mph S7.6 kmh S 15.0 mph24.1 kmh 29.92 in1013.2 mb 0.00 in0.0 mm 0.00 in0.0 mm 0.00 in0.0 mm
04:38 PM 59.0°F15.0°C 48.4°F9.1°C 68% 1.3 mph SW2.1 kmh SW 12.5 mph20.1 kmh 29.92 in1013.2 mb 0.00 in0.0 mm 0.00 in0.0 mm 0.00 in0.0 mm
04:54 PM 58.3°F14.6°C 48.2°F9.0°C 69% 6.3 mph SE10.1 kmh SE 12.5 mph20.1 kmh 29.92 in1013.2 mb 0.00 in0.0 mm 0.00 in0.0 mm 0.00 in0.0 mm
05:09 PM 57.7°F14.3°C 47.7°F8.7°C 69% 3.1 mph S5.0 kmh S 12.5 mph20.1 kmh 29.92 in1013.2 mb 0.00 in0.0 mm 0.00 in0.0 mm 0.00 in0.0 mm
05:24 PM 57.4°F14.1°C 48.0°F8.9°C 71% 2.9 mph SW4.7 kmh SW 10.1 mph16.3 kmh 29.91 in1012.9 mb 0.00 in0.0 mm 0.00 in0.0 mm 0.00 in0.0 mm
05:39 PM 57.0°F13.9°C 47.3°F8.5°C 70% Calm Calm 7.6 mph12.2 kmh 29.92 in1013.2 mb 0.00 in0.0 mm 0.00 in0.0 mm 0.00 in0.0 mm
05:54 PM 57.0°F13.9°C 46.6°F8.1°C 68% Calm Calm 7.6 mph12.2 kmh 29.92 in1013.2 mb 0.00 in0.0 mm 0.00 in0.0 mm 0.00 in0.0 mm
06:09 PM 57.0°F13.9°C 46.6°F8.1°C 68% 1.8 mph SE2.9 kmh SE 4.9 mph7.9 kmh 29.92 in1013.2 mb 0.00 in0.0 mm 0.00 in0.0 mm 0.00 in0.0 mm
06:24 PM 56.7°F13.7°C 46.2°F7.9°C 68% 0.9 mph S1.4 kmh S 7.6 mph12.2 kmh 29.91 in1012.9 mb 0.00 in0.0 mm 0.00 in0.0 mm 0.00 in0.0 mm
06:39 PM 56.5°F13.6°C 46.8°F8.2°C 70% 4.5 mph SSE7.2 kmh SSE 7.6 mph12.2 kmh 29.91 in1012.9 mb 0.00 in0.0 mm 0.00 in0.0 mm 0.00 in0.0 mm
06:54 PM 55.9°F13.3°C 46.8°F8.2°C 71% Calm Calm 7.6 mph12.2 kmh 29.92 in1013.2 mb 0.00 in0.0 mm 0.00 in0.0 mm 0.00 in0.0 mm
07:09 PM 55.4°F13.0°C 46.2°F7.9°C 71% Calm Calm 4.9 mph7.9 kmh 29.93 in1013.5 mb 0.00 in0.0 mm 0.00 in0.0 mm 0.00 in0.0 mm
07:24 PM 55.0°F12.8°C 47.3°F8.5°C 75% 1.8 mph NNW2.9 kmh NNW 4.9 mph7.9 kmh 29.93 in1013.5 mb 0.00 in0.0 mm 0.00 in0.0 mm 0.00 in0.0 mm
07:39 PM 54.1°F12.3°C 47.1°F8.4°C 77% 1.3 mph NNW2.1 kmh NNW 4.9 mph7.9 kmh 29.93 in1013.5 mb 0.00 in0.0 mm 0.00 in0.0 mm 0.00 in0.0 mm
07:54 PM 53.1°F11.7°C 46.4°F8.0°C 78% 1.8 mph NW2.9 kmh NW 4.9 mph7.9 kmh 29.95 in1014.2 mb 0.00 in0.0 mm 0.00 in0.0 mm 0.00 in0.0 mm
08:09 PM 52.7°F11.5°C 45.7°F7.6°C 77% 4.5 mph NNW7.2 kmh NNW 7.6 mph12.2 kmh 29.95 in1014.2 mb 0.00 in0.0 mm 0.00 in0.0 mm 0.00 in0.0 mm
08:24 PM 52.5°F11.4°C 45.9°F7.7°C 78% 4.7 mph N7.6 kmh N 10.1 mph16.3 kmh 29.95 in1014.2 mb 0.00 in0.0 mm 0.00 in0.0 mm 0.00 in0.0 mm
08:39 PM 52.3°F11.3°C 46.0°F7.8°C 79% 3.8 mph N6.1 kmh N 7.6 mph12.2 kmh 29.96 in1014.6 mb 0.00 in0.0 mm 0.00 in0.0 mm 0.00 in0.0 mm
08:54 PM 52.2°F11.2°C 45.9°F7.7°C 79% 4.7 mph NNW7.6 kmh NNW 7.6 mph12.2 kmh 29.96 in1014.6 mb 0.00 in0.0 mm 0.00 in0.0 mm 0.00 in0.0 mm
09:09 PM 52.2°F11.2°C 45.1°F7.3°C 77% 4.9 mph NNW7.9 kmh NNW 7.6 mph12.2 kmh 29.96 in1014.6 mb 0.00 in0.0 mm 0.00 in0.0 mm 0.00 in0.0 mm
09:25 PM 51.8°F11.0°C 44.1°F6.7°C 75% 4.9 mph NNW7.9 kmh NNW 10.1 mph16.3 kmh 29.97 in1014.9 mb 0.00 in0.0 mm 0.00 in0.0 mm 0.00 in0.0 mm
09:40 PM 51.6°F10.9°C 43.5°F6.4°C 74% 5.4 mph NNW8.7 kmh NNW 10.1 mph16.3 kmh 29.97 in1014.9 mb 0.00 in0.0 mm 0.00 in0.0 mm 0.00 in0.0 mm
09:55 PM 51.6°F10.9°C 43.0°F6.1°C 72% 5.4 mph NNW8.7 kmh NNW 10.1 mph16.3 kmh 29.97 in1014.9 mb 0.00 in0.0 mm 0.00 in0.0 mm 0.00 in0.0 mm
10:10 PM 51.8°F11.0°C 43.3°F6.3°C 73% 4.9 mph NNW7.9 kmh NNW 10.1 mph16.3 kmh 29.98 in1015.2 mb 0.00 in0.0 mm 0.00 in0.0 mm 0.00 in0.0 mm
10:25 PM 52.0°F11.1°C 43.9°F6.6°C 74% 4.5 mph NNW7.2 kmh NNW 10.1 mph16.3 kmh 29.98 in1015.2 mb 0.00 in0.0 mm 0.00 in0.0 mm 0.00 in0.0 mm
10:40 PM 51.8°F11.0°C 43.7°F6.5°C 74% 3.8 mph N6.1 kmh N 7.6 mph12.2 kmh 29.98 in1015.2 mb 0.00 in0.0 mm 0.00 in0.0 mm 0.00 in0.0 mm
10:55 PM 51.8°F11.0°C 43.0°F6.1°C 72% 6.9 mph NNW11.1 kmh NNW 7.6 mph12.2 kmh 29.98 in1015.2 mb 0.00 in0.0 mm 0.00 in0.0 mm 0.00 in0.0 mm
11:10 PM 51.8°F11.0°C 43.3°F6.3°C 73% 6.0 mph NNW9.7 kmh NNW 10.1 mph16.3 kmh 29.97 in1014.9 mb 0.00 in0.0 mm 0.00 in0.0 mm 0.00 in0.0 mm
11:25 PM 51.8°F11.0°C 43.0°F6.1°C 72% 6.3 mph N10.1 kmh N 12.5 mph20.1 kmh 29.97 in1014.9 mb 0.00 in0.0 mm 0.00 in0.0 mm 0.00 in0.0 mm
11:40 PM 51.8°F11.0°C 43.7°F6.5°C 74% 5.4 mph NNW8.7 kmh NNW 10.1 mph16.3 kmh 29.97 in1014.9 mb 0.00 in0.0 mm 0.00 in0.0 mm 0.00 in0.0 mm
11:55 PM 51.8°F11.0°C 42.6°F5.9°C 71% 7.2 mph NNW11.6 kmh NNW 10.1 mph16.3 kmh 29.96 in1014.6 mb 0.00 in0.0 mm 0.00 in0.0 mm 0.00 in0.0 mm